Time,TemperatureF,DewpointF,PressureIn,WindDirection,WindDirectionDegrees,WindSpeedMPH,WindSpeedGustMPH,Humidity,HourlyPrecipIn,Conditions,Clouds,dailyrainin,SoftwareType,DateUTC
2013-02-10 00:01:00,25.8,19.0,29.75,ESE,106,0.0,0.0,75,0.00,,---,0.00,VWS V14.00,2013-02-10 07:01:00,
2013-02-10 00:07:00,25.6,18.8,29.74,ESE,106,0.0,0.0,75,0.00,,---,0.00,VWS V14.00,2013-02-10 07:07:00,
2013-02-10 00:12:00,25.5,18.7,29.74,ESE,106,0.0,0.0,75,0.00,,---,0.00,VWS V14.00,2013-02-10 07:12:00,
2013-02-10 00:17:00,25.4,18.6,29.75,ESE,106,0.0,0.0,75,0.00,,---,0.00,VWS V14.00,2013-02-10 07:17:00,
2013-02-10 00:22:00,25.3,18.5,29.75,ESE,106,0.0,0.0,75,0.00,,---,0.00,VWS V14.00,2013-02-10 07:22:00,
2013-02-10 00:27:00,25.2,18.4,29.75,ESE,106,0.0,0.0,75,0.00,,---,0.00,VWS V14.00,2013-02-10 07:27:00,
2013-02-10 00:32:00,25.1,18.3,29.75,ESE,106,0.0,0.0,75,0.00,,---,0.00,VWS V14.00,2013-02-10 07:32:00,
2013-02-10 00:37:00,24.9,18.1,29.75,ESE,106,0.0,0.0,75,0.00,,---,0.00,VWS V14.00,2013-02-10 07:37:00,
2013-02-10 00:42:00,24.8,18.0,29.75,ESE,106,0.0,0.0,75,0.00,,---,0.00,VWS V14.00,2013-02-10 07:42:00,
2013-02-10 00:47:00,24.6,17.8,29.75,ESE,106,0.0,0.0,75,0.00,,---,0.00,VWS V14.00,2013-02-10 07:47:00,
2013-02-10 00:52:00,24.4,17.6,29.75,ESE,106,0.0,0.0,75,0.00,,---,0.00,VWS V14.00,2013-02-10 07:52:00,
2013-02-10 00:58:00,24.2,17.4,29.75,ESE,106,0.0,0.0,75,0.00,,---,0.00,VWS V14.00,2013-02-10 07:58:00,
2013-02-10 01:03:00,24.1,17.6,29.75,ESE,106,0.0,0.0,76,0.00,,---,0.00,VWS V14.00,2013-02-10 08:03:00,
2013-02-10 01:09:00,23.9,17.5,29.75,ESE,106,0.0,0.0,76,0.00,,---,0.00,VWS V14.00,2013-02-10 08:09:00,
2013-02-10 01:15:00,23.9,17.5,29.75,ESE,106,0.0,2.0,76,0.00,,---,0.00,VWS V14.00,2013-02-10 08:15:00,
2013-02-10 01:20:00,23.9,17.8,29.75,ESE,106,0.0,0.0,77,0.00,,---,0.00,VWS V14.00,2013-02-10 08:20:00,
2013-02-10 01:25:00,23.8,17.7,29.75,ESE,106,0.0,0.0,77,0.00,,---,0.00,VWS V14.00,2013-02-10 08:25:00,
2013-02-10 01:31:00,23.7,17.6,29.75,ESE,106,0.0,0.0,77,0.00,,---,0.00,VWS V14.00,2013-02-10 08:31:00,
2013-02-10 01:36:00,23.6,17.5,29.75,ESE,106,0.0,0.0,77,0.00,,---,0.00,VWS V14.00,2013-02-10 08:36:00,
2013-02-10 01:41:00,23.6,17.5,29.75,ESE,106,0.0,0.0,77,0.00,,---,0.00,VWS V14.00,2013-02-10 08:41:00,
2013-02-10 01:46:00,23.6,17.8,29.76,ESE,106,0.0,1.0,78,0.00,,---,0.00,VWS V14.00,2013-02-10 08:46:00,
2013-02-10 01:52:00,23.7,17.9,29.76,ESE,106,0.0,0.0,78,0.00,,---,0.00,VWS V14.00,2013-02-10 08:52:00,
2013-02-10 01:57:00,23.7,17.9,29.76,ESE,106,0.0,0.0,78,0.00,,---,0.00,VWS V14.00,2013-02-10 08:57:00,
2013-02-10 02:02:00,23.6,17.8,29.76,ESE,106,0.0,0.0,78,0.00,,---,0.00,VWS V14.00,2013-02-10 09:02:00,
2013-02-10 02:08:00,23.5,17.7,29.78,ESE,106,0.0,0.0,78,0.00,,---,0.00,VWS V14.00,2013-02-10 09:08:00,
2013-02-10 02:14:00,23.4,17.6,29.78,ESE,106,0.0,0.0,78,0.00,,---,0.00,VWS V14.00,2013-02-10 09:14:00,
2013-02-10 02:19:00,23.3,17.5,29.78,ESE,106,0.0,0.0,78,0.00,,---,0.00,VWS V14.00,2013-02-10 09:19:00,
2013-02-10 02:24:00,23.2,17.4,29.78,ESE,106,0.0,0.0,78,0.00,,---,0.00,VWS V14.00,2013-02-10 09:24:00,
2013-02-10 02:29:00,23.1,17.3,29.78,ESE,106,0.0,0.0,78,0.00,,---,0.00,VWS V14.00,2013-02-10 09:29:00,
2013-02-10 02:34:00,23.0,17.2,29.79,ESE,106,0.0,0.0,78,0.00,,---,0.00,VWS V14.00,2013-02-10 09:34:00,
2013-02-10 02:39:00,22.9,17.1,29.79,ESE,106,0.0,0.0,78,0.00,,---,0.00,VWS V14.00,2013-02-10 09:39:00,
2013-02-10 02:44:00,22.8,17.3,29.79,ESE,106,0.0,0.0,79,0.00,,---,0.00,VWS V14.00,2013-02-10 09:44:00,
2013-02-10 02:49:00,22.7,17.2,29.79,ESE,106,0.0,0.0,79,0.00,,---,0.00,VWS V14.00,2013-02-10 09:49:00,
2013-02-10 02:54:00,22.6,17.1,29.79,ESE,106,0.0,0.0,79,0.00,,---,0.00,VWS V14.00,2013-02-10 09:54:00,
2013-02-10 02:59:00,22.5,17.0,29.79,ESE,106,0.0,0.0,79,0.00,,---,0.00,VWS V14.00,2013-02-10 09:59:00,
2013-02-10 03:04:00,22.6,17.1,29.79,ESE,106,0.0,0.0,79,0.00,,---,0.00,VWS V14.00,2013-02-10 10:04:00,
2013-02-10 03:09:00,22.5,17.0,29.79,ESE,106,0.0,0.0,79,0.00,,---,0.00,VWS V14.00,2013-02-10 10:09:00,
2013-02-10 03:14:00,22.5,17.0,29.79,ESE,106,0.0,0.0,79,0.00,,---,0.00,VWS V14.00,2013-02-10 10:14:00,
2013-02-10 03:19:00,22.6,17.4,29.79,ESE,106,0.0,0.0,80,0.00,,---,0.00,VWS V14.00,2013-02-10 10:19:00,
2013-02-10 03:24:00,22.9,17.7,29.79,ESE,106,1.0,3.0,80,0.00,,---,0.00,VWS V14.00,2013-02-10 10:24:00,
2013-02-10 03:29:00,23.2,18.2,29.79,ESE,106,0.0,0.0,81,0.00,,---,0.00,VWS V14.00,2013-02-10 10:29:00,
2013-02-10 03:34:00,23.5,18.5,29.80,ESE,106,0.0,1.0,81,0.00,,---,0.00,VWS V14.00,2013-02-10 10:34:00,
2013-02-10 03:39:00,23.7,18.7,29.80,ESE,106,1.0,1.0,81,0.00,,---,0.00,VWS V14.00,2013-02-10 10:39:00,
2013-02-10 03:44:00,23.9,18.9,29.80,ESE,106,0.0,0.0,81,0.00,,---,0.00,VWS V14.00,2013-02-10 10:44:00,
2013-02-10 03:49:00,24.0,19.0,29.80,ESE,106,0.0,0.0,81,0.00,,---,0.00,VWS V14.00,2013-02-10 10:49:00,
2013-02-10 03:54:00,24.2,19.5,29.80,ESE,106,0.0,0.0,82,0.00,,---,0.00,VWS V14.00,2013-02-10 10:54:00,
2013-02-10 03:59:00,24.2,19.2,29.80,ESE,106,0.0,0.0,81,0.00,,---,0.00,VWS V14.00,2013-02-10 10:59:00,
2013-02-10 04:04:00,24.2,19.2,29.80,ESE,106,0.0,0.0,81,0.00,,---,0.00,VWS V14.00,2013-02-10 11:04:00,
2013-02-10 04:09:00,24.2,19.2,29.81,ESE,106,0.0,0.0,81,0.00,,---,0.00,VWS V14.00,2013-02-10 11:09:00,
2013-02-10 04:14:00,24.3,19.6,29.81,ESE,106,0.0,0.0,82,0.00,,---,0.00,VWS V14.00,2013-02-10 11:14:00,
2013-02-10 04:19:00,24.3,19.6,29.81,ESE,106,0.0,0.0,82,0.00,,---,0.00,VWS V14.00,2013-02-10 11:19:00,
2013-02-10 04:24:00,24.3,19.6,29.82,ESE,106,1.0,1.0,82,0.00,,---,0.00,VWS V14.00,2013-02-10 11:24:00,
2013-02-10 04:29:00,24.2,19.5,29.82,ESE,106,1.0,2.0,82,0.00,,---,0.00,VWS V14.00,2013-02-10 11:29:00,
2013-02-10 04:34:00,24.2,19.5,29.82,ESE,106,0.0,0.0,82,0.00,,---,0.00,VWS V14.00,2013-02-10 11:34:00,
2013-02-10 04:39:00,24.2,19.5,29.83,ESE,106,0.0,0.0,82,0.00,,---,0.00,VWS V14.00,2013-02-10 11:39:00,
2013-02-10 04:44:00,24.1,19.4,29.82,ESE,106,0.0,0.0,82,0.00,,---,0.00,VWS V14.00,2013-02-10 11:44:00,
2013-02-10 04:49:00,24.0,19.3,29.83,ESE,106,0.0,0.0,82,0.00,,---,0.00,VWS V14.00,2013-02-10 11:49:00,
2013-02-10 04:54:00,23.9,19.2,29.83,ESE,106,0.0,0.0,82,0.00,,---,0.00,VWS V14.00,2013-02-10 11:54:00,
2013-02-10 04:59:00,23.9,18.9,29.83,ESE,106,0.0,0.0,81,0.00,,---,0.00,VWS V14.00,2013-02-10 11:59:00,
2013-02-10 05:04:00,23.9,18.9,29.83,ESE,106,0.0,0.0,81,0.00,,---,0.00,VWS V14.00,2013-02-10 12:04:00,
2013-02-10 05:09:00,23.8,18.8,29.84,ESE,106,0.0,0.0,81,0.00,,---,0.00,VWS V14.00,2013-02-10 12:09:00,
2013-02-10 05:14:00,23.8,19.1,29.84,ESE,106,0.0,0.0,82,0.00,,---,0.00,VWS V14.00,2013-02-10 12:14:00,
2013-02-10 05:19:00,23.7,19.0,29.84,ESE,106,0.0,0.0,82,0.00,,---,0.00,VWS V14.00,2013-02-10 12:19:00,
2013-02-10 05:24:00,23.8,19.1,29.84,ESE,106,0.0,0.0,82,0.00,,---,0.00,VWS V14.00,2013-02-10 12:24:00,
2013-02-10 05:29:00,23.9,19.2,29.85,ESE,106,0.0,0.0,82,0.00,,---,0.00,VWS V14.00,2013-02-10 12:29:00,
2013-02-10 05:34:00,23.9,19.2,29.85,ESE,106,1.0,2.0,82,0.00,,---,0.00,VWS V14.00,2013-02-10 12:34:00,
2013-02-10 05:39:00,24.1,19.4,29.85,ESE,106,0.0,0.0,82,0.00,,---,0.00,VWS V14.00,2013-02-10 12:39:00,
2013-02-10 05:44:00,24.2,19.5,29.86,ESE,106,0.0,0.0,82,0.00,,---,0.00,VWS V14.00,2013-02-10 12:44:00,
2013-02-10 05:49:00,24.2,19.5,29.86,ESE,106,0.0,0.0,82,0.00,,---,0.00,VWS V14.00,2013-02-10 12:49:00,
2013-02-10 05:54:00,24.3,19.6,29.86,ESE,106,0.0,0.0,82,0.00,,---,0.00,VWS V14.00,2013-02-10 12:54:00,
2013-02-10 05:59:00,24.5,19.8,29.86,ESE,106,0.0,2.0,82,0.00,,---,0.00,VWS V14.00,2013-02-10 12:59:00,
2013-02-10 06:04:00,24.6,19.9,29.87,ESE,106,0.0,0.0,82,0.00,,---,0.00,VWS V14.00,2013-02-10 13:04:00,
2013-02-10 06:09:00,24.8,20.1,29.87,ESE,106,0.0,0.0,82,0.00,,---,0.00,VWS V14.00,2013-02-10 13:09:00,
2013-02-10 06:14:00,24.8,20.1,29.87,ESE,106,0.0,0.0,82,0.00,,---,0.00,VWS V14.00,2013-02-10 13:14:00,
2013-02-10 06:19:00,24.9,20.2,29.88,ESE,106,0.0,0.0,82,0.00,,---,0.00,VWS V14.00,2013-02-10 13:19:00,
2013-02-10 06:24:00,24.9,19.9,29.88,ESE,106,0.0,0.0,81,0.00,,---,0.00,VWS V14.00,2013-02-10 13:24:00,
2013-02-10 06:29:00,24.9,19.9,29.88,ESE,106,0.0,0.0,81,0.00,,---,0.00,VWS V14.00,2013-02-10 13:29:00,
2013-02-10 06:34:00,24.9,19.9,29.89,ESE,106,0.0,0.0,81,0.00,,---,0.00,VWS V14.00,2013-02-10 13:34:00,
2013-02-10 06:39:00,24.9,19.9,29.89,ESE,106,0.0,0.0,81,0.00,,---,0.00,VWS V14.00,2013-02-10 13:39:00,
2013-02-10 06:44:00,25.0,20.0,29.90,ESE,106,0.0,0.0,81,0.00,,---,0.00,VWS V14.00,2013-02-10 13:44:00,
2013-02-10 06:49:00,25.0,20.0,29.90,ESE,106,0.0,0.0,81,0.00,,---,0.00,VWS V14.00,2013-02-10 13:49:00,
2013-02-10 06:54:00,25.0,20.0,29.90,ESE,106,0.0,0.0,81,0.00,,---,0.00,VWS V14.00,2013-02-10 13:54:00,
2013-02-10 06:59:00,25.0,20.0,29.90,ESE,106,0.0,1.0,81,0.00,,---,0.00,VWS V14.00,2013-02-10 13:59:00,
2013-02-10 07:04:00,25.1,20.1,29.92,ESE,106,0.0,1.0,81,0.00,,---,0.00,VWS V14.00,2013-02-10 14:04:00,
2013-02-10 07:09:00,25.1,20.1,29.92,ESE,106,0.0,3.0,81,0.00,,---,0.00,VWS V14.00,2013-02-10 14:09:00,
2013-02-10 07:14:00,25.1,19.8,29.92,ESE,106,0.0,0.0,80,0.00,,---,0.00,VWS V14.00,2013-02-10 14:14:00,
2013-02-10 07:19:00,25.2,20.2,29.93,ESE,106,0.0,0.0,81,0.00,,---,0.00,VWS V14.00,2013-02-10 14:19:00,
2013-02-10 07:24:00,25.3,20.0,29.93,ESE,106,0.0,0.0,80,0.00,,---,0.00,VWS V14.00,2013-02-10 14:24:00,
2013-02-10 07:29:00,25.3,20.0,29.93,ESE,106,0.0,0.0,80,0.00,,---,0.00,VWS V14.00,2013-02-10 14:29:00,
2013-02-10 07:34:00,25.4,20.1,29.94,ESE,106,0.0,0.0,80,0.00,,---,0.00,VWS V14.00,2013-02-10 14:34:00,
2013-02-10 07:39:00,25.4,20.1,29.94,ESE,106,0.0,0.0,80,0.00,,---,0.00,VWS V14.00,2013-02-10 14:39:00,
2013-02-10 07:44:00,25.5,19.9,29.93,ESE,106,0.0,2.0,79,0.00,,---,0.00,VWS V14.00,2013-02-10 14:44:00,
2013-02-10 07:49:00,25.7,20.1,29.93,ESE,106,0.0,0.0,79,0.00,,---,0.00,VWS V14.00,2013-02-10 14:49:00,
2013-02-10 07:54:00,25.8,20.2,29.94,ESE,106,1.0,3.0,79,0.00,,---,0.00,VWS V14.00,2013-02-10 14:54:00,
2013-02-10 07:59:00,26.0,20.1,29.94,ESE,105,0.0,0.0,78,0.00,,---,0.00,VWS V14.00,2013-02-10 14:59:00,
2013-02-10 08:04:00,26.2,20.3,29.96,ESE,105,0.0,0.0,78,0.00,,---,0.00,VWS V14.00,2013-02-10 15:04:00,
2013-02-10 08:09:00,26.3,20.1,29.96,ESE,105,0.0,0.0,77,0.00,,---,0.00,VWS V14.00,2013-02-10 15:09:00,
2013-02-10 08:14:00,26.5,20.0,29.95,WSW,244,0.0,0.0,76,0.00,,---,0.00,VWS V14.00,2013-02-10 15:14:00,
2013-02-10 08:19:00,26.7,20.2,29.96,West,275,0.0,0.0,76,0.00,,---,0.00,VWS V14.00,2013-02-10 15:19:00,
2013-02-10 08:24:00,27.0,20.1,29.96,NNW,327,0.0,0.0,75,0.00,,---,0.00,VWS V14.00,2013-02-10 15:24:00,
2013-02-10 08:29:00,27.2,20.0,29.96,NNW,342,0.0,0.0,74,0.00,,---,0.00,VWS V14.00,2013-02-10 15:29:00,
2013-02-10 08:34:00,27.6,20.1,29.96,NNW,342,0.0,2.0,73,0.00,,---,0.00,VWS V14.00,2013-02-10 15:34:00,
2013-02-10 08:39:00,28.2,20.4,29.96,NNW,341,0.0,0.0,72,0.00,,---,0.00,VWS V14.00,2013-02-10 15:39:00,
2013-02-10 08:44:00,28.6,19.7,29.95,NNW,342,0.0,1.0,69,0.00,,---,0.00,VWS V14.00,2013-02-10 15:44:00,
2013-02-10 08:49:00,28.9,19.7,29.96,NNW,342,0.0,1.0,68,0.00,,---,0.00,VWS V14.00,2013-02-10 15:49:00,
2013-02-10 08:54:00,29.3,19.7,29.96,NNW,342,0.0,0.0,67,0.00,,---,0.00,VWS V14.00,2013-02-10 15:54:00,
2013-02-10 08:59:00,29.7,19.8,29.96,NNW,341,0.0,0.0,66,0.00,,---,0.00,VWS V14.00,2013-02-10 15:59:00,
2013-02-10 09:04:00,29.9,19.6,29.97,NNW,342,0.0,0.0,65,0.00,,---,0.00,VWS V14.00,2013-02-10 16:04:00,
2013-02-10 09:09:00,30.0,19.3,29.97,NNW,342,0.0,3.0,64,0.00,,---,0.00,VWS V14.00,2013-02-10 16:09:00,
2013-02-10 09:14:00,30.1,19.0,29.97,NE,42,4.0,4.0,63,0.00,,---,0.00,VWS V14.00,2013-02-10 16:14:00,
2013-02-10 09:19:00,30.3,18.1,29.97,NNE,33,3.0,8.0,60,0.00,,---,0.00,VWS V14.00,2013-02-10 16:19:00,
2013-02-10 09:24:00,30.7,18.1,29.98,NNW,346,2.0,5.0,59,0.00,,---,0.00,VWS V14.00,2013-02-10 16:24:00,
2013-02-10 09:29:00,30.9,17.9,29.98,NNE,14,2.0,4.0,58,0.00,,---,0.00,VWS V14.00,2013-02-10 16:29:00,
2013-02-10 09:34:00,31.1,18.1,29.98,NNE,26,4.0,4.0,58,0.00,,---,0.00,VWS V14.00,2013-02-10 16:34:00,
2013-02-10 09:39:00,31.1,17.2,29.98,North,350,1.0,4.0,56,0.00,,---,0.00,VWS V14.00,2013-02-10 16:39:00,
2013-02-10 09:44:00,31.5,18.0,29.97,North,355,0.0,3.0,57,0.00,,---,0.00,VWS V14.00,2013-02-10 16:44:00,
2013-02-10 09:49:00,32.2,17.9,29.97,NNE,15,0.0,4.0,55,0.00,,---,0.00,VWS V14.00,2013-02-10 16:49:00,
2013-02-10 09:54:00,32.1,17.3,29.97,NNE,18,2.0,4.0,54,0.00,,---,0.00,VWS V14.00,2013-02-10 16:54:00,
2013-02-10 09:59:00,32.4,16.8,29.97,North,351,0.0,4.0,52,0.00,,---,0.00,VWS V14.00,2013-02-10 16:59:00,
2013-02-10 10:04:00,32.6,15.6,29.98,NNE,25,5.0,6.0,49,0.00,,---,0.00,VWS V14.00,2013-02-10 17:04:00,
2013-02-10 10:09:00,32.9,15.4,29.98,NNE,32,4.0,4.0,48,0.00,,---,0.00,VWS V14.00,2013-02-10 17:09:00,
2013-02-10 10:15:00,33.2,14.7,29.98,West,261,3.0,8.0,46,0.00,,---,0.00,VWS V14.00,2013-02-10 17:15:00,
2013-02-10 10:20:00,33.7,15.6,29.98,NE,45,4.0,10.0,47,0.00,,---,0.00,VWS V14.00,2013-02-10 17:20:00,
2013-02-10 10:25:00,33.7,14.6,29.98,NW,309,2.0,8.0,45,0.00,,---,0.00,VWS V14.00,2013-02-10 17:25:00,
2013-02-10 10:31:00,33.7,13.6,29.98,NNW,333,6.0,10.0,43,0.00,,---,0.00,VWS V14.00,2013-02-10 17:31:00,
2013-02-10 10:37:00,34.2,13.0,29.98,NNE,13,4.0,11.0,41,0.00,,---,0.00,VWS V14.00,2013-02-10 17:37:00,
2013-02-10 10:43:00,34.4,13.1,29.99,North,5,6.0,7.0,41,0.00,,---,0.00,VWS V14.00,2013-02-10 17:43:00,
2013-02-10 10:48:00,34.4,12.0,29.99,NNE,32,5.0,15.0,39,0.00,,---,0.00,VWS V14.00,2013-02-10 17:48:00,
2013-02-10 10:53:00,34.7,12.3,29.98,North,5,7.0,10.0,39,0.00,,---,0.00,VWS V14.00,2013-02-10 17:53:00,
2013-02-10 10:59:00,34.9,12.5,29.97,North,9,3.0,4.0,39,0.00,,---,0.00,VWS V14.00,2013-02-10 17:59:00,
2013-02-10 11:04:00,35.5,11.8,29.98,NNE,13,3.0,11.0,37,0.00,,---,0.00,VWS V14.00,2013-02-10 18:04:00,
2013-02-10 11:09:00,35.5,11.8,29.98,NNE,15,7.0,8.0,37,0.00,,---,0.00,VWS V14.00,2013-02-10 18:09:00,
2013-02-10 11:15:00,35.7,12.6,29.98,NNE,13,9.0,14.0,38,0.00,,---,0.00,VWS V14.00,2013-02-10 18:15:00,
2013-02-10 11:20:00,35.0,11.4,29.99,NNE,24,6.0,8.0,37,0.00,,---,0.00,VWS V14.00,2013-02-10 18:20:00,
2013-02-10 11:25:00,35.0,11.4,29.99,WNW,284,5.0,6.0,37,0.00,,---,0.00,VWS V14.00,2013-02-10 18:25:00,
2013-02-10 11:31:00,35.5,12.4,29.98,NNE,19,4.0,7.0,38,0.00,,---,0.00,VWS V14.00,2013-02-10 18:31:00,
2013-02-10 11:36:00,35.9,11.6,29.97,NNE,14,7.0,7.0,36,0.00,,---,0.00,VWS V14.00,2013-02-10 18:36:00,
2013-02-10 11:41:00,35.8,11.5,29.97,NNW,329,6.0,13.0,36,0.00,,---,0.00,VWS V14.00,2013-02-10 18:41:00,
2013-02-10 11:47:00,35.7,11.4,29.97,North,355,7.0,7.0,36,0.00,,---,0.00,VWS V14.00,2013-02-10 18:47:00,
2013-02-10 11:52:00,35.9,11.6,29.96,NNW,338,11.0,18.0,36,0.00,,---,0.00,VWS V14.00,2013-02-10 18:52:00,
2013-02-10 11:57:00,35.8,10.8,29.97,NE,40,5.0,7.0,35,0.00,,---,0.00,VWS V14.00,2013-02-10 18:57:00,
2013-02-10 12:02:00,35.6,11.3,29.97,NE,41,6.0,7.0,36,0.00,,---,0.00,VWS V14.00,2013-02-10 19:02:00,
2013-02-10 12:07:00,35.6,11.3,29.98,NNE,15,0.0,6.0,36,0.00,,---,0.00,VWS V14.00,2013-02-10 19:07:00,
2013-02-10 12:12:00,36.0,11.0,29.98,NE,45,1.0,5.0,35,0.00,,---,0.00,VWS V14.00,2013-02-10 19:12:00,
2013-02-10 12:18:00,35.6,10.7,29.98,North,5,2.0,5.0,35,0.00,,---,0.00,VWS V14.00,2013-02-10 19:18:00,
2013-02-10 12:23:00,35.9,11.6,29.98,NNE,24,2.0,5.0,36,0.00,,---,0.00,VWS V14.00,2013-02-10 19:23:00,
2013-02-10 12:28:00,35.7,11.4,29.98,ENE,67,7.0,9.0,36,0.00,,---,0.00,VWS V14.00,2013-02-10 19:28:00,
2013-02-10 12:33:00,35.5,11.2,29.98,NNE,22,2.0,4.0,36,0.00,,---,0.00,VWS V14.00,2013-02-10 19:33:00,
2013-02-10 12:38:00,36.0,11.6,29.98,NW,318,4.0,6.0,36,0.00,,---,0.00,VWS V14.00,2013-02-10 19:38:00,
2013-02-10 12:43:00,35.9,11.6,29.98,NNW,342,0.0,4.0,36,0.00,,---,0.00,VWS V14.00,2013-02-10 19:43:00,
2013-02-10 12:48:00,35.5,11.2,29.98,NNW,337,0.0,4.0,36,0.00,,---,0.00,VWS V14.00,2013-02-10 19:48:00,
2013-02-10 12:53:00,35.7,11.4,29.98,North,360,5.0,11.0,36,0.00,,---,0.00,VWS V14.00,2013-02-10 19:53:00,
2013-02-10 12:58:00,35.3,10.4,30.00,NNE,26,3.0,7.0,35,0.00,,---,0.00,VWS V14.00,2013-02-10 19:58:00,
2013-02-10 13:04:00,35.5,11.2,29.99,NNE,14,1.0,4.0,36,0.00,,---,0.00,VWS V14.00,2013-02-10 20:04:00,
2013-02-10 13:09:00,35.5,11.2,29.99,NNE,24,3.0,5.0,36,0.00,,---,0.00,VWS V14.00,2013-02-10 20:09:00,
2013-02-10 13:14:00,35.6,11.3,29.99,North,360,4.0,9.0,36,0.00,,---,0.00,VWS V14.00,2013-02-10 20:14:00,
2013-02-10 13:19:00,35.7,10.8,29.99,NE,49,4.0,4.0,35,0.00,,---,0.00,VWS V14.00,2013-02-10 20:19:00,
2013-02-10 13:24:00,35.9,10.9,29.99,NNE,24,3.0,3.0,35,0.00,,---,0.00,VWS V14.00,2013-02-10 20:24:00,
2013-02-10 13:30:00,36.0,10.4,29.99,NNE,18,4.0,7.0,34,0.00,,---,0.00,VWS V14.00,2013-02-10 20:30:00,
2013-02-10 13:35:00,35.7,10.8,29.99,North,5,2.0,3.0,35,0.00,,---,0.00,VWS V14.00,2013-02-10 20:35:00,
2013-02-10 13:41:00,35.8,10.8,29.99,NE,42,0.0,10.0,35,0.00,,---,0.00,VWS V14.00,2013-02-10 20:41:00,
2013-02-10 13:46:00,36.0,10.4,29.99,NNW,333,6.0,6.0,34,0.00,,---,0.00,VWS V14.00,2013-02-10 20:46:00,
2013-02-10 13:51:00,37.0,11.2,29.99,NE,41,5.0,5.0,34,0.00,,---,0.00,VWS V14.00,2013-02-10 20:51:00,
2013-02-10 13:56:00,37.0,11.2,29.99,NNE,32,4.0,6.0,34,0.00,,---,0.00,VWS V14.00,2013-02-10 20:56:00,
2013-02-10 14:01:00,36.4,12.0,29.99,East,82,2.0,7.0,36,0.00,,---,0.00,VWS V14.00,2013-02-10 21:01:00,
2013-02-10 14:06:00,36.2,11.8,30.01,North,360,4.0,7.0,36,0.00,,---,0.00,VWS V14.00,2013-02-10 21:06:00,
2013-02-10 14:11:00,35.5,11.8,30.01,North,360,3.0,6.0,37,0.00,,---,0.00,VWS V14.00,2013-02-10 21:11:00,
2013-02-10 14:16:00,35.2,12.1,30.01,SE,124,1.0,3.0,38,0.00,,---,0.00,VWS V14.00,2013-02-10 21:16:00,
2013-02-10 14:21:00,35.5,11.8,30.01,North,355,4.0,12.0,37,0.00,,---,0.00,VWS V14.00,2013-02-10 21:21:00,
2013-02-10 14:26:00,35.1,12.1,30.01,NE,36,4.0,10.0,38,0.00,,---,0.00,VWS V14.00,2013-02-10 21:26:00,
2013-02-10 14:31:00,35.3,12.8,30.02,North,355,1.0,8.0,39,0.00,,---,0.00,VWS V14.00,2013-02-10 21:31:00,
2013-02-10 14:36:00,35.5,14.1,30.01,ESE,102,0.0,0.0,41,0.00,,---,0.00,VWS V14.00,2013-02-10 21:36:00,
2013-02-10 14:41:00,35.9,12.8,30.01,NNE,22,1.0,4.0,38,0.00,,---,0.00,VWS V14.00,2013-02-10 21:41:00,
2013-02-10 14:46:00,35.7,11.4,30.02,NNW,348,3.0,7.0,36,0.00,,---,0.00,VWS V14.00,2013-02-10 21:46:00,
2013-02-10 14:51:00,35.7,10.8,30.02,ENE,57,7.0,7.0,35,0.00,,---,0.00,VWS V14.00,2013-02-10 21:51:00,
2013-02-10 14:56:00,35.5,10.6,30.02,NE,38,6.0,8.0,35,0.00,,---,0.00,VWS V14.00,2013-02-10 21:56:00,
2013-02-10 15:01:00,35.2,10.3,30.03,NNE,18,0.0,3.0,35,0.00,,---,0.00,VWS V14.00,2013-02-10 22:01:00,
2013-02-10 15:06:00,35.5,10.6,30.03,NNE,31,6.0,9.0,35,0.00,,---,0.00,VWS V14.00,2013-02-10 22:06:00,
2013-02-10 15:11:00,35.9,10.3,30.02,North,9,5.0,7.0,34,0.00,,---,0.00,VWS V14.00,2013-02-10 22:11:00,
2013-02-10 15:16:00,35.4,10.5,30.03,NNE,15,2.0,5.0,35,0.00,,---,0.00,VWS V14.00,2013-02-10 22:16:00,
2013-02-10 15:21:00,36.1,10.5,30.02,NNE,32,2.0,7.0,34,0.00,,---,0.00,VWS V14.00,2013-02-10 22:21:00,
2013-02-10 15:26:00,36.3,11.3,30.02,North,5,2.0,5.0,35,0.00,,---,0.00,VWS V14.00,2013-02-10 22:26:00,
2013-02-10 15:31:00,36.4,11.4,30.02,NNE,12,2.0,9.0,35,0.00,,---,0.00,VWS V14.00,2013-02-10 22:31:00,
2013-02-10 15:36:00,36.0,11.0,30.03,NNE,21,1.0,4.0,35,0.00,,---,0.00,VWS V14.00,2013-02-10 22:36:00,
2013-02-10 15:41:00,36.1,11.1,30.03,North,5,2.0,5.0,35,0.00,,---,0.00,VWS V14.00,2013-02-10 22:41:00,
2013-02-10 15:46:00,35.7,10.8,30.03,ENE,68,4.0,4.0,35,0.00,,---,0.00,VWS V14.00,2013-02-10 22:46:00,
2013-02-10 15:51:00,35.9,10.3,30.03,North,355,6.0,7.0,34,0.00,,---,0.00,VWS V14.00,2013-02-10 22:51:00,
2013-02-10 15:56:00,35.6,10.0,30.03,NNE,19,2.0,6.0,34,0.00,,---,0.00,VWS V14.00,2013-02-10 22:56:00,
2013-02-10 16:01:00,35.5,10.6,30.03,North,11,4.0,5.0,35,0.00,,---,0.00,VWS V14.00,2013-02-10 23:01:00,
2013-02-10 16:06:00,35.6,10.7,30.03,NNE,26,4.0,6.0,35,0.00,,---,0.00,VWS V14.00,2013-02-10 23:06:00,
2013-02-10 16:11:00,35.3,10.4,30.05,NNE,28,2.0,5.0,35,0.00,,---,0.00,VWS V14.00,2013-02-10 23:11:00,
2013-02-10 16:16:00,35.0,10.1,30.05,NE,40,3.0,5.0,35,0.00,,---,0.00,VWS V14.00,2013-02-10 23:16:00,
2013-02-10 16:21:00,35.1,10.2,30.06,NNE,22,2.0,6.0,35,0.00,,---,0.00,VWS V14.00,2013-02-10 23:21:00,
2013-02-10 16:26:00,34.8,9.9,30.06,NNE,19,0.0,5.0,35,0.00,,---,0.00,VWS V14.00,2013-02-10 23:26:00,
2013-02-10 16:31:00,34.4,10.2,30.06,North,355,1.0,3.0,36,0.00,,---,0.00,VWS V14.00,2013-02-10 23:31:00,
2013-02-10 16:36:00,34.3,10.1,30.06,North,355,9.0,9.0,36,0.00,,---,0.00,VWS V14.00,2013-02-10 23:36:00,
2013-02-10 16:41:00,34.0,9.9,30.06,NNE,31,0.0,1.0,36,0.00,,---,0.00,VWS V14.00,2013-02-10 23:41:00,
2013-02-10 16:46:00,34.0,9.9,30.06,ENE,58,3.0,5.0,36,0.00,,---,0.00,VWS V14.00,2013-02-10 23:46:00,
2013-02-10 16:52:00,33.6,9.5,30.07,NNE,26,1.0,4.0,36,0.00,,---,0.00,VWS V14.00,2013-02-10 23:52:00,
2013-02-10 16:57:00,33.3,9.9,30.08,NNE,24,2.0,6.0,37,0.00,,---,0.00,VWS V14.00,2013-02-10 23:57:00,
2013-02-10 17:02:00,33.1,10.3,30.08,NE,44,0.0,2.0,38,0.00,,---,0.00,VWS V14.00,2013-02-11 00:02:00,
2013-02-10 17:07:00,32.9,10.1,30.07,NE,42,3.0,4.0,38,0.00,,---,0.00,VWS V14.00,2013-02-11 00:07:00,
2013-02-10 17:12:00,32.8,10.0,30.07,NNE,19,2.0,2.0,38,0.00,,---,0.00,VWS V14.00,2013-02-11 00:12:00,
2013-02-10 17:17:00,32.6,9.8,30.08,NE,38,4.0,4.0,38,0.00,,---,0.00,VWS V14.00,2013-02-11 00:17:00,
2013-02-10 17:22:00,32.4,9.6,30.08,NNE,21,0.0,2.0,38,0.00,,---,0.00,VWS V14.00,2013-02-11 00:22:00,
2013-02-10 17:27:00,32.2,9.5,30.10,NNE,21,0.0,3.0,38,0.00,,---,0.00,VWS V14.00,2013-02-11 00:27:00,
2013-02-10 17:32:00,32.0,9.9,30.10,North,360,5.0,5.0,39,0.00,,---,0.00,VWS V14.00,2013-02-11 00:32:00,
2013-02-10 17:37:00,31.6,13.2,30.10,NNE,25,7.0,7.0,46,0.00,,---,0.00,VWS V14.00,2013-02-11 00:37:00,
2013-02-10 17:42:00,31.1,13.7,30.10,ESE,111,2.0,4.0,48,0.00,,---,0.00,VWS V14.00,2013-02-11 00:42:00,
2013-02-10 17:47:00,30.5,14.1,30.11,NNE,17,1.0,4.0,50,0.00,,---,0.00,VWS V14.00,2013-02-11 00:47:00,
2013-02-10 17:52:00,30.1,14.2,30.12,East,80,2.0,4.0,51,0.00,,---,0.00,VWS V14.00,2013-02-11 00:52:00,
2013-02-10 17:57:00,29.6,14.1,30.13,ESE,121,0.0,2.0,52,0.00,,---,0.00,VWS V14.00,2013-02-11 00:57:00,
2013-02-10 18:02:00,29.2,13.8,30.13,East,85,0.0,0.0,52,0.00,,---,0.00,VWS V14.00,2013-02-11 01:02:00,
2013-02-10 18:07:00,28.9,13.5,30.14,ENE,78,0.0,3.0,52,0.00,,---,0.00,VWS V14.00,2013-02-11 01:07:00,
2013-02-10 18:12:00,28.7,13.8,30.14,NNW,337,1.0,1.0,53,0.00,,---,0.00,VWS V14.00,2013-02-11 01:12:00,
2013-02-10 18:17:00,28.4,13.5,30.15,ENE,78,0.0,0.0,53,0.00,,---,0.00,VWS V14.00,2013-02-11 01:17:00,
2013-02-10 18:22:00,28.1,13.2,30.16,East,91,3.0,3.0,53,0.00,,---,0.00,VWS V14.00,2013-02-11 01:22:00,
2013-02-10 18:27:00,27.8,12.9,30.16,NE,41,0.0,1.0,53,0.00,,---,0.00,VWS V14.00,2013-02-11 01:27:00,
2013-02-10 18:32:00,27.6,13.1,30.17,NE,48,1.0,3.0,54,0.00,,---,0.00,VWS V14.00,2013-02-11 01:32:00,
2013-02-10 18:37:00,27.5,13.1,30.17,ESE,107,2.0,2.0,54,0.00,,---,0.00,VWS V14.00,2013-02-11 01:37:00,
2013-02-10 18:42:00,27.2,13.2,30.17,East,101,0.0,2.0,55,0.00,,---,0.00,VWS V14.00,2013-02-11 01:42:00,
2013-02-10 18:47:00,27.0,13.0,30.18,East,101,0.0,0.0,55,0.00,,---,0.00,VWS V14.00,2013-02-11 01:47:00,
2013-02-10 18:52:00,26.7,13.1,30.18,ESE,106,0.0,1.0,56,0.00,,---,0.00,VWS V14.00,2013-02-11 01:52:00,
2013-02-10 18:57:00,26.4,12.8,30.18,East,87,0.0,4.0,56,0.00,,---,0.00,VWS V14.00,2013-02-11 01:57:00,
2013-02-10 19:02:00,26.1,12.6,30.20,ENE,63,0.0,4.0,56,0.00,,---,0.00,VWS V14.00,2013-02-11 02:02:00,
2013-02-10 19:07:00,25.9,12.4,30.19,ENE,63,1.0,1.0,56,0.00,,---,0.00,VWS V14.00,2013-02-11 02:07:00,
2013-02-10 19:12:00,25.6,12.5,30.19,ENE,76,1.0,4.0,57,0.00,,---,0.00,VWS V14.00,2013-02-11 02:12:00,
2013-02-10 19:17:00,25.3,12.2,30.20,ENE,75,0.0,3.0,57,0.00,,---,0.00,VWS V14.00,2013-02-11 02:17:00,
2013-02-10 19:22:00,25.2,12.1,30.20,ENE,75,0.0,1.0,57,0.00,,---,0.00,VWS V14.00,2013-02-11 02:22:00,
2013-02-10 19:27:00,24.9,11.8,30.21,ENE,77,0.0,3.0,57,0.00,,---,0.00,VWS V14.00,2013-02-11 02:27:00,
2013-02-10 19:32:00,24.7,12.0,30.21,East,94,0.0,1.0,58,0.00,,---,0.00,VWS V14.00,2013-02-11 02:32:00,
2013-02-10 19:37:00,24.6,11.9,30.21,ESE,104,0.0,0.0,58,0.00,,---,0.00,VWS V14.00,2013-02-11 02:37:00,
2013-02-10 19:42:00,24.4,12.1,30.22,ESE,121,2.0,3.0,59,0.00,,---,0.00,VWS V14.00,2013-02-11 02:42:00,
2013-02-10 19:47:00,24.2,11.9,30.22,ESE,122,2.0,3.0,59,0.00,,---,0.00,VWS V14.00,2013-02-11 02:47:00,
2013-02-10 19:52:00,24.1,11.9,30.22,ESE,121,0.0,2.0,59,0.00,,---,0.00,VWS V14.00,2013-02-11 02:52:00,
2013-02-10 19:57:00,23.9,11.7,30.22,ESE,119,0.0,1.0,59,0.00,,---,0.00,VWS V14.00,2013-02-11 02:57:00,
2013-02-10 20:02:00,23.8,12.0,30.23,ESE,123,0.0,2.0,60,0.00,,---,0.00,VWS V14.00,2013-02-11 03:02:00,
2013-02-10 20:07:00,23.6,11.8,30.21,ESE,123,0.0,0.0,60,0.00,,---,0.00,VWS V14.00,2013-02-11 03:07:00,
2013-02-10 20:13:00,23.4,11.6,30.23,ESE,123,0.0,1.0,60,0.00,,---,0.00,VWS V14.00,2013-02-11 03:13:00,
2013-02-10 20:18:00,23.4,11.6,30.23,ESE,123,0.0,0.0,60,0.00,,---,0.00,VWS V14.00,2013-02-11 03:18:00,
2013-02-10 20:23:00,23.3,11.5,30.23,ESE,123,0.0,0.0,60,0.00,,---,0.00,VWS V14.00,2013-02-11 03:23:00,
2013-02-10 20:28:00,23.1,11.3,30.24,ESE,123,0.0,0.0,60,0.00,,---,0.00,VWS V14.00,2013-02-11 03:28:00,
2013-02-10 20:33:00,23.1,11.7,30.24,ESE,123,0.0,1.0,61,0.00,,---,0.00,VWS V14.00,2013-02-11 03:33:00,
2013-02-10 20:38:00,23.0,11.6,30.24,ESE,123,0.0,0.0,61,0.00,,---,0.00,VWS V14.00,2013-02-11 03:38:00,
2013-02-10 20:43:00,23.1,11.7,30.24,ESE,123,0.0,1.0,61,0.00,,---,0.00,VWS V14.00,2013-02-11 03:43:00,
2013-02-10 20:48:00,23.1,12.0,30.24,ESE,123,0.0,0.0,62,0.00,,---,0.00,VWS V14.00,2013-02-11 03:48:00,
2013-02-10 20:54:00,23.2,12.1,30.25,ESE,123,0.0,0.0,62,0.00,,---,0.00,VWS V14.00,2013-02-11 03:54:00,
2013-02-10 20:59:00,23.3,12.2,30.25,ESE,123,0.0,1.0,62,0.00,,---,0.00,VWS V14.00,2013-02-11 03:59:00,
2013-02-10 21:04:00,23.4,12.3,30.23,ESE,123,2.0,2.0,62,0.00,,---,0.00,VWS V14.00,2013-02-11 04:04:00,
2013-02-10 21:10:00,23.6,12.1,30.23,ESE,123,0.0,0.0,61,0.00,,---,0.00,VWS V14.00,2013-02-11 04:10:00,
2013-02-10 21:15:00,23.7,12.2,30.23,ESE,123,0.0,2.0,61,0.00,,---,0.00,VWS V14.00,2013-02-11 04:15:00,
2013-02-10 21:20:00,23.8,12.3,30.23,ESE,123,2.0,3.0,61,0.00,,---,0.00,VWS V14.00,2013-02-11 04:20:00,
2013-02-10 21:25:00,23.8,12.3,30.23,ESE,121,1.0,2.0,61,0.00,,---,0.00,VWS V14.00,2013-02-11 04:25:00,
2013-02-10 21:31:00,23.8,12.3,30.23,ESE,115,1.0,4.0,61,0.00,,---,0.00,VWS V14.00,2013-02-11 04:31:00,
2013-02-10 21:36:00,23.7,12.2,30.23,SE,125,1.0,2.0,61,0.00,,---,0.00,VWS V14.00,2013-02-11 04:36:00,
2013-02-10 21:41:00,23.6,12.5,30.23,SE,128,0.0,4.0,62,0.00,,---,0.00,VWS V14.00,2013-02-11 04:41:00,
2013-02-10 21:46:00,23.5,12.4,30.23,SE,126,2.0,2.0,62,0.00,,---,0.00,VWS V14.00,2013-02-11 04:46:00,
2013-02-10 21:51:00,23.3,12.2,30.24,SE,125,0.0,0.0,62,0.00,,---,0.00,VWS V14.00,2013-02-11 04:51:00,
2013-02-10 21:56:00,23.2,12.5,30.24,ENE,65,2.0,4.0,63,0.00,,---,0.00,VWS V14.00,2013-02-11 04:56:00,
2013-02-10 22:00:00,23.1,12.4,30.24,ENE,72,0.0,0.0,63,0.00,,---,0.00,VWS V14.00,2013-02-11 05:00:00,
2013-02-10 22:01:00,23.1,12.4,30.24,ENE,73,0.0,0.0,63,0.00,,---,0.00,VWS V14.00,2013-02-11 05:01:00,
2013-02-10 22:02:00,23.0,12.3,30.23,ENE,73,0.0,0.0,63,0.00,,---,0.00,VWS V14.00,2013-02-11 05:02:00,
2013-02-10 22:07:00,22.9,12.2,30.23,ENE,72,0.0,0.0,63,0.00,,---,0.00,VWS V14.00,2013-02-11 05:07:00,
2013-02-10 22:12:00,22.8,12.1,30.23,ENE,73,0.0,0.0,63,0.00,,---,0.00,VWS V14.00,2013-02-11 05:12:00,
2013-02-10 22:18:00,22.7,12.0,30.23,ENE,72,0.0,0.0,63,0.00,,---,0.00,VWS V14.00,2013-02-11 05:18:00,
2013-02-10 22:23:00,22.6,11.9,30.23,ENE,73,0.0,0.0,63,0.00,,---,0.00,VWS V14.00,2013-02-11 05:23:00,
2013-02-10 22:28:00,22.5,11.8,30.23,ENE,73,0.0,0.0,63,0.00,,---,0.00,VWS V14.00,2013-02-11 05:28:00,
2013-02-10 22:33:00,22.4,11.7,30.25,ENE,72,0.0,0.0,63,0.00,,---,0.00,VWS V14.00,2013-02-11 05:33:00,
2013-02-10 22:38:00,22.3,11.6,30.25,ENE,73,0.0,1.0,63,0.00,,---,0.00,VWS V14.00,2013-02-11 05:38:00,
2013-02-10 22:44:00,22.2,11.9,30.25,ENE,73,0.0,1.0,64,0.00,,---,0.00,VWS V14.00,2013-02-11 05:44:00,
2013-02-10 22:50:00,22.1,11.8,30.25,ENE,73,0.0,0.0,64,0.00,,---,0.00,VWS V14.00,2013-02-11 05:50:00,
2013-02-10 22:55:00,22.1,11.8,30.25,ENE,72,0.0,0.0,64,0.00,,---,0.00,VWS V14.00,2013-02-11 05:55:00,
2013-02-10 23:01:00,22.1,12.1,30.25,ENE,73,0.0,2.0,65,0.00,,---,0.00,VWS V14.00,2013-02-11 06:01:00,
2013-02-10 23:06:00,22.1,12.1,30.24,ENE,73,0.0,0.0,65,0.00,,---,0.00,VWS V14.00,2013-02-11 06:06:00,
2013-02-10 23:11:00,22.1,12.1,30.24,ENE,73,0.0,0.0,65,0.00,,---,0.00,VWS V14.00,2013-02-11 06:11:00,
2013-02-10 23:17:00,22.1,12.1,30.24,ENE,73,0.0,0.0,65,0.00,,---,0.00,VWS V14.00,2013-02-11 06:17:00,
2013-02-10 23:23:00,22.2,12.2,30.24,ESE,114,0.0,0.0,65,0.00,,---,0.00,VWS V14.00,2013-02-11 06:23:00,
2013-02-10 23:28:00,22.2,12.2,30.25,SE,125,0.0,1.0,65,0.00,,---,0.00,VWS V14.00,2013-02-11 06:28:00,
2013-02-10 23:29:00,22.2,12.2,30.24,SE,125,0.0,0.0,65,0.00,,---,0.00,VWS V14.00,2013-02-11 06:29:00,
2013-02-10 23:34:00,22.2,12.2,30.25,SE,125,1.0,1.0,65,0.00,,---,0.00,VWS V14.00,2013-02-11 06:34:00,
2013-02-10 23:39:00,22.2,12.2,30.25,SE,125,0.0,3.0,65,0.00,,---,0.00,VWS V14.00,2013-02-11 06:39:00,
2013-02-10 23:45:00,22.2,12.2,30.25,ESE,121,0.0,1.0,65,0.00,,---,0.00,VWS V14.00,2013-02-11 06:45:00,
2013-02-10 23:50:00,22.3,12.7,30.25,ESE,121,1.0,1.0,66,0.00,,---,0.00,VWS V14.00,2013-02-11 06:50:00,
2013-02-10 23:55:00,22.3,12.3,30.25,ESE,121,1.0,5.0,65,0.00,,---,0.00,VWS V14.00,2013-02-11 06:55:00,